Terminal Aerodrome Forecast
Issued by NWS

Current Version | Previous Version | Text Only | Print | Product List | Glossary Off
Versions: 1 2 3 4 5 6 7 8 9 10 11 12 13 14 15 16 17 18

752
FTUS41 KPBZ 190525
TAFMGW
TAF
KMGW 190525Z 1906/2006 00000KT P6SM SKC
     FM190800 00000KT 3SM BR SCT005
      TEMPO 1909/1911 1SM BR BKN005
     FM191400 VRB03KT P6SM SCT025
     FM191700 VRB03KT P6SM BKN050
     FM200000 00000KT P6SM SCT150=

USA.gov is the U.S. government's official web portal to all federal, state and local government web resources and services.